createdAt,value
2023-08-29T16:36:37.485Z,9.762739
2023-08-29T16:37:37.467Z,9.762677
2023-08-29T16:38:37.424Z,9.762864
2023-08-29T16:39:37.456Z,9.762980
2023-08-29T16:40:37.424Z,9.762967
2023-08-29T16:41:37.421Z,9.762908
2023-08-29T16:42:37.411Z,9.763026
2023-08-29T16:43:37.401Z,9.763897
2023-08-29T16:44:37.386Z,9.762830
2023-08-29T16:45:37.365Z,9.762772
2023-08-29T16:46:37.434Z,9.762818
2023-08-29T16:47:38.395Z,9.762829
2023-08-29T16:48:37.358Z,9.762811
2023-08-29T16:49:37.346Z,9.762768
2023-08-29T16:50:37.352Z,9.762775
2023-08-29T16:51:37.335Z,9.763040
2023-08-29T16:52:37.377Z,9.762838
2023-08-29T16:53:37.284Z,9.762741
2023-08-29T16:54:37.302Z,9.762684
2023-08-29T16:55:37.287Z,9.762675
2023-08-29T16:56:37.307Z,9.762758
2023-08-29T16:57:37.302Z,9.762763
2023-08-29T16:58:37.248Z,9.762842
2023-08-29T16:59:37.220Z,9.762832
2023-08-29T17:00:37.274Z,9.762968
2023-08-29T17:01:37.245Z,9.763036
2023-08-29T17:02:37.337Z,9.762986
2023-08-29T17:03:37.286Z,9.762877
2023-08-29T17:04:37.202Z,9.762905
2023-08-29T17:05:37.198Z,9.762876
2023-08-29T17:06:37.238Z,9.762784
2023-08-29T17:07:37.163Z,9.762835
2023-08-29T17:08:37.152Z,9.762779
2023-08-29T17:09:37.148Z,9.762761
2023-08-29T17:10:37.168Z,9.762850
2023-08-29T17:11:37.120Z,9.762779
2023-08-29T17:12:37.109Z,9.762676
2023-08-29T17:13:37.083Z,9.762786
2023-08-29T17:14:37.095Z,9.762847
2023-08-29T17:15:37.060Z,9.762774
2023-08-29T17:16:37.110Z,9.762712
2023-08-29T17:17:37.062Z,9.762729
2023-08-29T17:18:37.018Z,9.762743
2023-08-29T17:19:37.050Z,9.762708
2023-08-29T17:20:37.022Z,9.762749
2023-08-29T17:21:37.007Z,9.762734
2023-08-29T17:22:37.010Z,9.762676
2023-08-29T17:23:36.975Z,9.762548
2023-08-29T17:24:36.982Z,9.762593
2023-08-29T17:25:36.949Z,9.762553
2023-08-29T17:26:36.941Z,9.762384
2023-08-29T17:27:36.965Z,9.762730
2023-08-29T17:28:37.316Z,9.762869
2023-08-29T17:29:36.959Z,9.762750
2023-08-29T17:30:36.898Z,9.762696
2023-08-29T17:31:36.933Z,9.762810
2023-08-29T17:32:36.884Z,9.762681
2023-08-29T17:33:36.893Z,9.762888
2023-08-29T17:34:36.862Z,9.762734
2023-08-29T17:35:36.863Z,9.762858
2023-08-29T17:36:36.864Z,9.762881
2023-08-29T17:37:36.825Z,9.762873
2023-08-29T17:38:36.846Z,9.762962
2023-08-29T17:39:36.840Z,9.762791
2023-08-29T17:40:36.834Z,9.762808
2023-08-29T17:41:36.801Z,9.762585
2023-08-29T17:42:36.798Z,9.762639
2023-08-29T17:43:36.780Z,9.762819
2023-08-29T17:44:36.785Z,9.762790
2023-08-29T17:45:36.819Z,9.762786
2023-08-29T17:46:36.765Z,9.762783
2023-08-29T17:47:36.794Z,9.762753
2023-08-29T17:48:36.741Z,9.762851
2023-08-29T17:49:36.716Z,9.762769
2023-08-29T17:50:36.711Z,9.762650
2023-08-29T17:51:36.726Z,9.762694
2023-08-29T17:52:36.753Z,9.762527
2023-08-29T17:53:36.711Z,9.762530
2023-08-29T17:54:36.675Z,9.762800
2023-08-29T17:55:36.671Z,9.762714
2023-08-29T17:56:36.690Z,9.762712
2023-08-29T17:57:36.664Z,9.762809
2023-08-29T17:58:36.656Z,9.762940
2023-08-29T17:59:36.653Z,9.762890
2023-08-29T18:00:36.659Z,9.762911
2023-08-29T18:01:36.706Z,9.762820
2023-08-29T18:02:36.725Z,9.762713
2023-08-29T18:03:36.703Z,9.762817
2023-08-29T18:04:36.649Z,9.762981
2023-08-29T18:05:36.625Z,9.762635
2023-08-29T18:06:36.575Z,9.762634
2023-08-29T18:07:36.577Z,9.762739
2023-08-29T18:08:36.550Z,9.762631
2023-08-29T18:09:36.557Z,9.762546
2023-08-29T18:10:36.550Z,9.762883
2023-08-29T18:11:36.528Z,9.762959
2023-08-29T18:12:36.555Z,9.762852
2023-08-29T18:13:36.523Z,9.762802
2023-08-29T18:14:36.482Z,9.762722
2023-08-29T18:15:36.476Z,9.762406
2023-08-29T18:16:36.471Z,9.762759
2023-08-29T18:17:36.519Z,9.762710
2023-08-29T18:18:36.429Z,9.763097
2023-08-29T18:19:36.457Z,9.762897
2023-08-29T18:20:36.426Z,9.762779
2023-08-29T18:21:36.411Z,9.762652
2023-08-29T18:22:36.382Z,9.762675
2023-08-29T18:23:36.407Z,9.762802
2023-08-29T18:24:36.414Z,9.762908
2023-08-29T18:25:36.412Z,9.762729
2023-08-29T18:26:36.394Z,9.762828
2023-08-29T18:27:36.375Z,9.763475
2023-08-29T18:28:36.371Z,9.762667
2023-08-29T18:29:36.400Z,9.764524
2023-08-29T18:30:36.374Z,9.769432
2023-08-29T18:31:36.339Z,9.772888
2023-08-29T18:32:36.364Z,9.777192
2023-08-29T18:33:36.298Z,9.777269
2023-08-29T18:34:36.312Z,9.777269
2023-08-29T18:35:36.291Z,9.777269
2023-08-29T18:36:38.266Z,9.777269
2023-08-29T18:37:36.269Z,9.777269
2023-08-29T18:38:36.254Z,9.777269
2023-08-29T18:39:36.297Z,9.777269
2023-08-29T18:40:36.241Z,9.777269
2023-08-29T18:41:36.242Z,9.777269
2023-08-29T18:42:36.242Z,9.777269
2023-08-29T18:43:36.220Z,9.777269
2023-08-29T18:44:36.239Z,9.777269
2023-08-29T18:45:36.207Z,9.777269
2023-08-29T18:46:36.183Z,9.777269
2023-08-29T18:47:36.222Z,9.777269
2023-08-29T18:48:36.177Z,9.841285
2023-08-29T18:49:36.159Z,9.841242
2023-08-29T18:50:36.147Z,9.841242
2023-08-29T18:51:36.123Z,9.841242
2023-08-29T18:52:36.186Z,9.827833
2023-08-29T18:53:36.122Z,9.827833
2023-08-29T18:54:36.119Z,9.827833
2023-08-29T18:55:36.097Z,9.827833
2023-08-29T18:56:36.111Z,9.827833
2023-08-29T18:57:36.109Z,9.827833
2023-08-29T18:58:37.662Z,9.827833
2023-08-29T18:59:36.059Z,9.827833
2023-08-29T19:00:36.104Z,9.827833
2023-08-29T19:01:36.039Z,9.827833
2023-08-29T19:02:36.061Z,9.827833
2023-08-29T19:03:36.029Z,9.827833
2023-08-29T19:04:36.028Z,9.827833
2023-08-29T19:05:36.070Z,9.827833
2023-08-29T19:06:35.997Z,9.827833
2023-08-29T19:07:36.038Z,9.827833
2023-08-29T19:08:36.006Z,9.827833
2023-08-29T19:09:35.984Z,9.827833
2023-08-29T19:10:35.964Z,9.827833
2023-08-29T19:11:35.974Z,9.827833
2023-08-29T19:12:35.982Z,9.827833
2023-08-29T19:13:35.884Z,9.827833
2023-08-29T19:14:35.899Z,9.827833
2023-08-29T19:15:35.926Z,9.827833
2023-08-29T19:16:36.826Z,9.827833
2023-08-29T19:17:35.951Z,9.827833
2023-08-29T19:18:37.987Z,9.827833
2023-08-29T19:19:35.834Z,9.827833
2023-08-29T19:20:35.843Z,9.827833
2023-08-29T19:21:35.880Z,9.827833
2023-08-29T19:22:35.858Z,9.827833
2023-08-29T19:23:35.823Z,9.827833
2023-08-29T19:24:36.809Z,9.827833
2023-08-29T19:25:35.783Z,9.827833
2023-08-29T19:26:35.800Z,9.827833
2023-08-29T19:27:35.784Z,9.827833
2023-08-29T19:28:35.760Z,9.827833
2023-08-29T19:29:35.753Z,9.827833
2023-08-29T19:30:35.758Z,9.827833
2023-08-29T19:31:35.743Z,9.827833
2023-08-29T19:32:35.802Z,9.827833
2023-08-29T19:33:35.771Z,9.827833
2023-08-29T19:34:35.710Z,9.827833
2023-08-29T19:35:35.726Z,9.827833
2023-08-29T19:36:35.703Z,9.827833
2023-08-29T19:37:35.693Z,9.827833
2023-08-29T19:38:35.665Z,9.827833
2023-08-29T19:39:35.663Z,9.827833
2023-08-29T19:40:35.675Z,9.827833
2023-08-29T19:41:35.638Z,9.827833
2023-08-29T19:42:35.645Z,9.827833
2023-08-29T19:43:35.619Z,9.827833
2023-08-29T19:44:35.593Z,9.827833
2023-08-29T19:45:35.589Z,9.827833
2023-08-29T19:46:35.612Z,9.827833
2023-08-29T19:47:35.636Z,9.827833
2023-08-29T19:48:35.570Z,9.827833
2023-08-29T19:49:35.604Z,9.827833
2023-08-29T19:50:35.543Z,9.827833
2023-08-29T19:51:35.547Z,9.827833
2023-08-29T19:52:35.528Z,9.827833
2023-08-29T19:53:38.274Z,9.827833
2023-08-29T19:54:35.610Z,9.827833
2023-08-29T19:55:35.543Z,9.827833
2023-08-29T19:56:35.502Z,9.827833
2023-08-29T19:57:35.490Z,9.827833
2023-08-29T19:58:35.483Z,9.827833
2023-08-29T19:59:35.488Z,9.827833
